createdAt,value
2022-07-31T00:00:20.063Z,16.07
2022-07-31T00:02:48.654Z,16.01
2022-07-31T00:05:20.016Z,15.95
2022-07-31T00:07:48.301Z,15.91
2022-07-31T00:10:19.158Z,15.88
2022-07-31T00:12:47.219Z,15.85
2022-07-31T00:15:14.092Z,15.79
2022-07-31T00:17:42.271Z,15.74
2022-07-31T00:20:13.423Z,15.70
2022-07-31T00:22:44.433Z,15.65
2022-07-31T00:25:12.602Z,15.61
2022-07-31T00:27:40.393Z,15.54
2022-07-31T00:30:07.803Z,15.45
2022-07-31T00:32:34.655Z,15.37
2022-07-31T00:35:01.689Z,15.30
2022-07-31T00:37:28.236Z,15.26
2022-07-31T00:39:54.831Z,15.23
2022-07-31T00:42:23.214Z,15.24
2022-07-31T00:44:51.275Z,15.27
2022-07-31T00:47:18.922Z,15.28
2022-07-31T00:49:50.926Z,15.26
2022-07-31T00:52:17.494Z,15.21
2022-07-31T00:54:44.116Z,15.17
2022-07-31T00:57:10.784Z,15.11
2022-07-31T00:59:37.449Z,15.06
2022-07-31T01:02:04.735Z,15.06
2022-07-31T01:04:31.543Z,15.05
2022-07-31T01:07:00.654Z,15.07
2022-07-31T01:09:27.736Z,15.06
2022-07-31T01:11:59.336Z,15.07
2022-07-31T01:14:29.854Z,15.09
2022-07-31T01:16:59.269Z,15.11
2022-07-31T01:19:42.041Z,15.12
2022-07-31T01:22:46.949Z,15.14
2022-07-31T01:25:51.826Z,15.13
2022-07-31T01:29:00.458Z,15.14
2022-07-31T01:31:53.461Z,15.14
2022-07-31T01:34:27.864Z,15.15
2022-07-31T01:37:06.860Z,15.15
2022-07-31T01:39:41.572Z,15.14
2022-07-31T01:42:12.045Z,15.27
2022-07-31T01:44:43.495Z,15.43
2022-07-31T01:47:19.119Z,15.49
2022-07-31T01:49:47.872Z,15.51
2022-07-31T01:52:15.298Z,15.53
2022-07-31T01:54:44.200Z,15.53
2022-07-31T01:57:13.152Z,15.51
2022-07-31T01:59:46.340Z,15.49
2022-07-31T02:02:14.885Z,15.50
2022-07-31T02:04:47.089Z,15.50
2022-07-31T02:07:15.184Z,15.51
2022-07-31T02:09:58.310Z,15.52
2022-07-31T02:12:32.109Z,15.51
2022-07-31T02:15:06.487Z,15.51
2022-07-31T02:17:34.491Z,15.51
2022-07-31T02:20:02.197Z,15.50
2022-07-31T02:22:29.667Z,15.48
2022-07-31T02:24:56.390Z,15.45
2022-07-31T02:27:55.439Z,15.44
2022-07-31T02:30:13.531Z,15.43
2022-07-31T02:32:41.500Z,15.44
2022-07-31T02:35:09.900Z,15.45
2022-07-31T02:37:38.356Z,15.46
2022-07-31T02:40:06.689Z,15.48
2022-07-31T02:42:34.273Z,15.46
2022-07-31T02:45:02.476Z,15.43
2022-07-31T02:47:29.597Z,15.38
2022-07-31T02:49:58.059Z,15.34
2022-07-31T02:52:26.500Z,15.32
2022-07-31T02:54:53.616Z,15.30
2022-07-31T02:57:20.326Z,15.28
2022-07-31T02:59:46.982Z,15.23
2022-07-31T03:02:13.561Z,15.21
2022-07-31T03:04:40.289Z,15.20
2022-07-31T03:07:06.954Z,15.18
2022-07-31T03:09:33.689Z,15.19
2022-07-31T03:12:04.361Z,15.22
2022-07-31T03:14:33.114Z,15.24
2022-07-31T03:17:00.667Z,15.25
2022-07-31T03:19:28.720Z,15.27
2022-07-31T03:21:56.366Z,15.28
2022-07-31T03:24:23.108Z,15.25
2022-07-31T03:26:49.801Z,15.23
2022-07-31T03:29:39.182Z,15.20
2022-07-31T03:32:03.469Z,15.17
2022-07-31T03:34:30.193Z,15.15
2022-07-31T03:36:56.764Z,15.14
2022-07-31T03:39:23.330Z,15.12
2022-07-31T03:41:51.463Z,15.10
2022-07-31T03:44:20.155Z,15.13
2022-07-31T03:46:47.150Z,15.30
2022-07-31T03:49:14.688Z,15.43
2022-07-31T03:51:41.382Z,15.46
2022-07-31T03:54:08.064Z,15.46
2022-07-31T03:56:35.761Z,15.45
2022-07-31T03:59:03.393Z,15.43
2022-07-31T04:01:57.512Z,15.44
2022-07-31T04:04:18.440Z,15.43
2022-07-31T04:06:45.124Z,15.42
2022-07-31T04:09:18.431Z,15.40
2022-07-31T04:11:46.028Z,15.37
2022-07-31T04:14:12.714Z,15.37
2022-07-31T04:16:39.288Z,15.38
2022-07-31T04:19:05.882Z,15.40
2022-07-31T04:21:32.513Z,15.39
2022-07-31T04:23:59.220Z,15.40
2022-07-31T04:26:26.373Z,15.40
2022-07-31T04:28:53.192Z,15.41
2022-07-31T04:31:19.989Z,15.41
2022-07-31T04:33:48.354Z,15.43
2022-07-31T04:36:29.678Z,15.44
2022-07-31T04:39:01.430Z,15.43
2022-07-31T04:41:28.657Z,15.39
2022-07-31T04:43:57.280Z,15.36
2022-07-31T04:46:27.041Z,15.35
2022-07-31T04:48:53.683Z,15.32
2022-07-31T04:51:22.017Z,15.32
2022-07-31T04:53:50.194Z,15.32
2022-07-31T04:56:33.444Z,15.32
2022-07-31T04:59:06.690Z,15.32
2022-07-31T05:01:34.521Z,15.33
2022-07-31T05:04:01.593Z,15.33
2022-07-31T05:06:40.557Z,15.34
2022-07-31T05:09:15.084Z,15.35
2022-07-31T05:11:46.009Z,15.37
2022-07-31T05:14:14.505Z,15.40
2022-07-31T05:16:41.104Z,15.42
2022-07-31T05:19:13.765Z,15.46
2022-07-31T05:21:52.877Z,15.47
2022-07-31T05:24:32.584Z,15.48
2022-07-31T05:27:02.481Z,15.49
2022-07-31T05:29:29.804Z,15.51
2022-07-31T05:32:00.505Z,15.55
2022-07-31T05:34:30.130Z,15.59
2022-07-31T05:36:59.185Z,15.61
2022-07-31T05:39:26.683Z,15.66
2022-07-31T05:41:53.253Z,15.71
2022-07-31T05:44:19.923Z,15.76
2022-07-31T05:46:46.628Z,15.82
2022-07-31T05:49:13.409Z,15.85
2022-07-31T05:51:43.649Z,15.90
2022-07-31T05:54:10.263Z,15.93
2022-07-31T05:56:36.891Z,15.96
2022-07-31T05:59:03.832Z,15.98
2022-07-31T06:01:30.573Z,16.02
2022-07-31T06:03:57.332Z,16.05
2022-07-31T06:06:23.912Z,16.07
2022-07-31T06:08:50.494Z,16.11
2022-07-31T06:11:17.177Z,16.16
2022-07-31T06:13:43.910Z,16.19
2022-07-31T06:16:16.595Z,16.24
2022-07-31T06:18:43.201Z,16.29
2022-07-31T06:23:37.001Z,16.35
2022-07-31T06:26:04.339Z,16.39
2022-07-31T06:28:48.137Z,16.42
2022-07-31T06:31:25.080Z,16.45
2022-07-31T06:33:52.663Z,16.50
2022-07-31T06:36:19.582Z,16.69
2022-07-31T06:38:46.480Z,16.86
2022-07-31T06:41:36.131Z,16.95
2022-07-31T06:44:02.797Z,17.04
2022-07-31T06:46:29.442Z,17.08
2022-07-31T06:48:56.111Z,17.15
2022-07-31T06:51:31.666Z,17.19
2022-07-31T06:54:03.504Z,17.25
2022-07-31T06:56:31.517Z,17.28
2022-07-31T06:58:58.237Z,17.31
2022-07-31T07:01:24.873Z,17.35
2022-07-31T07:03:51.576Z,17.36
2022-07-31T07:06:18.544Z,17.38
2022-07-31T07:08:45.494Z,17.43
2022-07-31T07:11:12.795Z,17.47
2022-07-31T07:13:45.980Z,17.48
2022-07-31T07:16:14.424Z,17.54
2022-07-31T07:18:41.060Z,17.59
2022-07-31T07:21:07.661Z,17.67
2022-07-31T07:23:35.710Z,17.74
2022-07-31T07:26:02.459Z,17.81
2022-07-31T07:28:30.572Z,17.86
2022-07-31T07:30:57.898Z,17.92
2022-07-31T07:33:40.714Z,17.99
2022-07-31T07:36:23.426Z,18.06
2022-07-31T07:38:55.730Z,18.12
2022-07-31T07:41:26.376Z,18.16
2022-07-31T07:43:53.447Z,18.19
2022-07-31T07:46:22.183Z,18.24
2022-07-31T07:48:51.007Z,18.28
2022-07-31T07:51:18.206Z,18.32
2022-07-31T07:53:44.776Z,18.35
2022-07-31T07:56:11.564Z,18.40
2022-07-31T07:58:38.235Z,18.43
2022-07-31T08:01:04.917Z,18.47
2022-07-31T08:03:49.879Z,18.50
2022-07-31T08:06:18.629Z,18.54
2022-07-31T08:08:45.297Z,18.59
2022-07-31T08:11:17.411Z,18.63
2022-07-31T08:13:50.078Z,18.66
2022-07-31T08:16:17.790Z,18.71
2022-07-31T08:18:44.468Z,18.73
2022-07-31T08:21:11.262Z,18.75
2022-07-31T08:23:38.181Z,18.78
2022-07-31T08:26:06.563Z,18.80
2022-07-31T08:28:33.264Z,18.81
2022-07-31T08:31:00.712Z,18.79
2022-07-31T08:33:27.473Z,18.80
2022-07-31T08:35:54.212Z,18.83
2022-07-31T08:38:21.941Z,18.85
2022-07-31T08:40:48.793Z,18.88
2022-07-31T08:46:03.257Z,18.93
2022-07-31T08:48:32.761Z,18.97
2022-07-31T08:51:02.634Z,19.02
2022-07-31T08:53:33.021Z,19.05
2022-07-31T08:56:00.399Z,19.08
2022-07-31T08:58:27.136Z,19.11
2022-07-31T09:00:53.878Z,19.13
2022-07-31T09:03:20.731Z,19.15
2022-07-31T09:05:47.536Z,19.17
2022-07-31T09:08:15.139Z,19.19
2022-07-31T09:10:46.287Z,19.24
2022-07-31T09:13:18.178Z,19.30
2022-07-31T09:15:45.290Z,19.38
2022-07-31T09:18:21.404Z,19.46
2022-07-31T09:20:59.563Z,19.51
2022-07-31T09:23:28.310Z,19.56
2022-07-31T09:26:02.023Z,19.63
2022-07-31T09:28:39.707Z,19.75
2022-07-31T09:31:09.437Z,19.83
2022-07-31T09:33:45.147Z,19.95
2022-07-31T09:36:14.151Z,20.07
2022-07-31T09:38:43.378Z,20.19
2022-07-31T09:41:55.638Z,20.27
2022-07-31T09:44:09.633Z,20.37
2022-07-31T09:46:47.178Z,20.46
2022-07-31T09:49:14.775Z,20.52
2022-07-31T09:51:44.414Z,20.59
2022-07-31T09:54:25.401Z,20.67
2022-07-31T09:56:52.446Z,20.70
2022-07-31T09:59:19.699Z,20.76
2022-07-31T10:01:49.130Z,20.83
2022-07-31T10:04:20.892Z,20.90
2022-07-31T10:06:49.855Z,20.93
2022-07-31T10:09:20.090Z,21.03
2022-07-31T10:11:49.771Z,21.11
2022-07-31T10:14:28.214Z,21.22
2022-07-31T10:16:58.616Z,21.39
2022-07-31T10:19:27.878Z,21.53
2022-07-31T10:21:57.576Z,21.69
2022-07-31T10:24:28.376Z,21.82
2022-07-31T10:27:01.157Z,21.91
2022-07-31T10:29:32.871Z,21.97
2022-07-31T10:32:01.187Z,22.02
2022-07-31T10:34:28.569Z,22.07
2022-07-31T10:36:59.171Z,22.09
2022-07-31T10:39:43.744Z,22.06
2022-07-31T10:42:30.748Z,22.06
2022-07-31T10:45:04.047Z,22.08
2022-07-31T10:47:31.071Z,22.12
2022-07-31T10:49:57.929Z,22.16
2022-07-31T10:52:31.476Z,22.17
2022-07-31T10:55:01.744Z,22.15
2022-07-31T10:57:33.381Z,22.16
2022-07-31T11:00:21.319Z,22.19
2022-07-31T11:02:48.428Z,22.20
2022-07-31T11:05:23.913Z,22.27
2022-07-31T11:08:02.937Z,22.39
2022-07-31T11:10:29.844Z,22.46
2022-07-31T11:13:15.656Z,22.49
2022-07-31T11:15:42.380Z,22.49
2022-07-31T11:18:24.365Z,22.53
2022-07-31T11:21:17.375Z,22.62
2022-07-31T11:24:02.080Z,22.71
2022-07-31T11:26:33.348Z,22.77
2022-07-31T11:30:01.343Z,22.78
2022-07-31T11:32:16.626Z,22.78
2022-07-31T11:34:43.638Z,22.78
2022-07-31T11:37:20.486Z,22.76
2022-07-31T11:39:51.300Z,22.74
2022-07-31T11:42:20.303Z,22.73
2022-07-31T11:45:01.787Z,22.73
2022-07-31T11:48:12.797Z,22.71
2022-07-31T11:50:31.052Z,22.70
2022-07-31T11:53:06.872Z,22.68
2022-07-31T11:55:48.684Z,22.64
2022-07-31T11:58:17.214Z,22.64
2022-07-31T12:00:48.167Z,22.63
2022-07-31T12:03:17.825Z,22.62
2022-07-31T12:05:49.256Z,22.57
2022-07-31T12:08:16.894Z,22.57
2022-07-31T12:10:45.456Z,22.56
2022-07-31T12:13:16.038Z,22.54
2022-07-31T12:15:59.912Z,22.51
2022-07-31T12:18:28.632Z,22.48
2022-07-31T12:21:03.426Z,22.45
2022-07-31T12:23:49.990Z,22.45
2022-07-31T12:26:28.453Z,22.46
2022-07-31T12:29:05.460Z,22.46
2022-07-31T12:31:44.665Z,22.42
2022-07-31T12:34:11.380Z,22.40
2022-07-31T12:36:37.944Z,22.35
2022-07-31T12:39:06.340Z,22.29
2022-07-31T12:41:43.199Z,22.21
2022-07-31T12:44:14.577Z,22.13
2022-07-31T12:46:42.005Z,22.07
2022-07-31T12:49:09.000Z,22.02
2022-07-31T12:51:45.578Z,21.96
2022-07-31T12:54:14.769Z,21.89
2022-07-31T12:56:42.924Z,21.81
2022-07-31T12:59:10.359Z,21.73
2022-07-31T13:01:37.581Z,21.65
2022-07-31T13:04:08.057Z,21.56
2022-07-31T13:06:48.757Z,21.48
2022-07-31T13:09:15.673Z,21.41
2022-07-31T13:11:46.871Z,21.34
2022-07-31T13:14:19.642Z,21.28
2022-07-31T13:16:47.361Z,21.24
2022-07-31T13:19:14.647Z,21.18
2022-07-31T13:21:48.888Z,21.12
2022-07-31T13:24:19.097Z,21.07
2022-07-31T13:26:45.891Z,21.02
2022-07-31T13:29:13.187Z,20.98
2022-07-31T13:31:40.287Z,20.91
2022-07-31T13:34:07.543Z,20.87
2022-07-31T13:36:39.469Z,20.85
2022-07-31T13:39:10.740Z,20.81
2022-07-31T13:41:39.411Z,20.75
2022-07-31T13:44:06.648Z,20.69
2022-07-31T13:46:33.504Z,20.61
2022-07-31T13:49:02.319Z,20.55
2022-07-31T13:51:30.206Z,20.52
2022-07-31T13:53:57.320Z,20.49
2022-07-31T13:56:39.549Z,20.47
2022-07-31T13:59:09.927Z,20.43
2022-07-31T14:02:05.136Z,20.38
2022-07-31T14:04:31.231Z,20.34
2022-07-31T14:07:00.695Z,20.31
2022-07-31T14:09:28.088Z,20.28
2022-07-31T14:11:56.139Z,20.25
2022-07-31T14:14:23.772Z,20.24
2022-07-31T14:16:50.745Z,20.23
2022-07-31T14:19:17.572Z,20.22
2022-07-31T14:21:56.303Z,20.20
2022-07-31T14:24:25.483Z,20.17
2022-07-31T14:26:52.654Z,20.14
2022-07-31T14:29:20.052Z,20.12
2022-07-31T14:31:47.248Z,20.10
2022-07-31T14:34:14.424Z,20.04
2022-07-31T14:36:41.073Z,20.00
2022-07-31T14:39:07.706Z,19.98
2022-07-31T14:41:34.574Z,19.95
2022-07-31T14:44:01.194Z,19.92
2022-07-31T14:46:27.778Z,19.89
2022-07-31T14:48:54.562Z,19.86
2022-07-31T14:51:21.496Z,19.86
2022-07-31T14:53:48.216Z,19.84
2022-07-31T14:56:23.437Z,19.81
2022-07-31T14:59:01.612Z,19.80
2022-07-31T15:01:30.631Z,19.77
2022-07-31T15:03:58.432Z,19.72
2022-07-31T15:06:41.580Z,19.67
2022-07-31T15:09:12.306Z,19.62
2022-07-31T15:11:59.055Z,19.59
2022-07-31T15:14:29.376Z,19.54
2022-07-31T15:16:56.746Z,19.50
2022-07-31T15:19:23.352Z,19.46
2022-07-31T15:22:10.470Z,19.45
2022-07-31T15:24:36.935Z,19.42
2022-07-31T15:27:04.162Z,19.37
2022-07-31T15:30:05.644Z,19.32
2022-07-31T15:32:17.774Z,19.28
2022-07-31T15:34:44.750Z,19.25
2022-07-31T15:37:20.377Z,19.20
2022-07-31T15:40:02.329Z,19.15
2022-07-31T15:42:37.915Z,19.16
2022-07-31T15:45:05.116Z,19.15
2022-07-31T15:47:32.359Z,19.13
2022-07-31T15:49:59.095Z,19.08
2022-07-31T15:52:26.349Z,19.00
2022-07-31T15:54:53.393Z,18.89
2022-07-31T15:57:21.482Z,18.80
2022-07-31T15:59:49.297Z,18.76
2022-07-31T16:02:16.154Z,18.74
2022-07-31T16:04:51.544Z,18.71
2022-07-31T16:08:30.686Z,18.67
2022-07-31T16:10:16.569Z,18.61
2022-07-31T16:12:48.184Z,18.57
2022-07-31T16:15:16.611Z,18.54
2022-07-31T16:17:43.810Z,18.47
2022-07-31T16:20:11.989Z,18.42
2022-07-31T16:22:41.092Z,18.38
2022-07-31T16:25:09.998Z,18.35
2022-07-31T16:27:37.953Z,18.30
2022-07-31T16:30:06.605Z,18.26
2022-07-31T16:32:33.753Z,18.22
2022-07-31T16:35:01.519Z,18.19
2022-07-31T16:37:50.091Z,18.16
2022-07-31T16:40:29.324Z,18.13
2022-07-31T16:43:00.960Z,18.09
2022-07-31T16:45:28.232Z,18.06
2022-07-31T16:47:54.916Z,18.04
2022-07-31T16:50:21.605Z,18.02
2022-07-31T16:52:52.698Z,18.01
2022-07-31T16:55:21.900Z,17.99
2022-07-31T16:58:11.219Z,17.95
2022-07-31T17:00:39.682Z,17.93
2022-07-31T17:03:06.444Z,17.90
2022-07-31T17:05:33.297Z,17.88
2022-07-31T17:08:00.021Z,17.87
2022-07-31T17:10:27.049Z,17.84
2022-07-31T17:12:54.442Z,17.82
2022-07-31T17:15:21.382Z,17.81
2022-07-31T17:17:48.249Z,17.79
2022-07-31T17:20:15.150Z,17.78
2022-07-31T17:22:42.918Z,17.79
2022-07-31T17:25:10.422Z,17.77
2022-07-31T17:27:37.119Z,17.75
2022-07-31T17:30:04.618Z,17.72
2022-07-31T17:32:32.441Z,17.73
2022-07-31T17:34:59.286Z,17.72
2022-07-31T17:37:26.218Z,17.71
2022-07-31T17:39:57.876Z,17.71
2022-07-31T17:42:25.865Z,17.70
2022-07-31T17:44:55.757Z,17.65
2022-07-31T17:47:25.600Z,17.64
2022-07-31T17:49:53.586Z,17.64
2022-07-31T17:52:23.153Z,17.63
2022-07-31T17:54:51.369Z,17.63
2022-07-31T17:57:18.509Z,17.65
2022-07-31T17:59:45.507Z,17.66
2022-07-31T18:02:12.297Z,17.69
2022-07-31T18:04:39.072Z,17.77
2022-07-31T18:07:07.425Z,17.81
2022-07-31T18:09:35.198Z,17.80
2022-07-31T18:12:02.208Z,17.80
2022-07-31T18:14:28.933Z,17.78
2022-07-31T18:16:55.646Z,17.76
2022-07-31T18:19:22.756Z,17.78
2022-07-31T18:21:50.732Z,17.79
2022-07-31T18:24:17.360Z,17.78
2022-07-31T18:26:44.091Z,17.78
2022-07-31T18:29:10.820Z,17.77
2022-07-31T18:31:37.849Z,17.76
2022-07-31T18:34:05.662Z,17.76
2022-07-31T18:36:34.329Z,17.76
2022-07-31T18:39:01.382Z,17.77
2022-07-31T18:41:28.028Z,17.78
2022-07-31T18:43:55.077Z,17.78
2022-07-31T18:46:23.650Z,17.78
2022-07-31T18:48:55.327Z,17.75
2022-07-31T18:51:24.004Z,17.75
2022-07-31T18:53:51.105Z,17.75
2022-07-31T18:56:17.845Z,17.76
2022-07-31T18:58:44.956Z,17.77
2022-07-31T19:01:11.965Z,17.77
2022-07-31T19:03:38.665Z,17.78
2022-07-31T19:06:05.458Z,18.00
2022-07-31T19:08:32.200Z,17.97
2022-07-31T19:10:59.461Z,17.97
2022-07-31T19:13:26.206Z,17.96
2022-07-31T19:15:55.860Z,17.95
2022-07-31T19:18:28.077Z,17.94
2022-07-31T19:21:22.602Z,17.93
2022-07-31T19:23:43.585Z,17.93
2022-07-31T19:26:10.437Z,17.94
2022-07-31T19:28:38.281Z,17.94
2022-07-31T19:31:05.679Z,17.95
2022-07-31T19:33:32.408Z,17.96
2022-07-31T19:36:02.273Z,17.96
2022-07-31T19:38:31.144Z,17.97
2022-07-31T19:40:58.034Z,17.98
2022-07-31T19:43:24.720Z,17.99
2022-07-31T19:46:09.796Z,18.00
2022-07-31T19:48:42.863Z,18.02
2022-07-31T19:51:11.552Z,18.03
2022-07-31T19:53:38.568Z,18.04
2022-07-31T19:56:06.250Z,18.07
2022-07-31T19:58:35.064Z,18.09
2022-07-31T20:01:02.870Z,18.13
2022-07-31T20:03:29.779Z,18.15
2022-07-31T20:05:57.102Z,18.20
2022-07-31T20:08:23.990Z,18.20
2022-07-31T20:10:51.463Z,18.23
2022-07-31T20:13:18.799Z,18.25
2022-07-31T20:15:51.098Z,18.25
2022-07-31T20:18:27.617Z,18.28
2022-07-31T20:20:57.262Z,18.30
2022-07-31T20:23:25.158Z,18.30
2022-07-31T20:25:51.790Z,18.30
2022-07-31T20:28:18.495Z,18.32
2022-07-31T20:30:45.155Z,18.32
2022-07-31T20:33:13.237Z,18.31
2022-07-31T20:35:47.893Z,18.31
2022-07-31T20:38:17.477Z,18.33
2022-07-31T20:40:49.947Z,18.40
2022-07-31T20:43:21.500Z,18.49
2022-07-31T20:45:48.405Z,18.52
2022-07-31T20:48:17.853Z,18.52
2022-07-31T20:50:47.711Z,18.51
2022-07-31T20:53:15.253Z,18.59
2022-07-31T20:55:46.877Z,18.62
2022-07-31T20:58:13.782Z,18.64
2022-07-31T21:00:40.957Z,18.64
2022-07-31T21:03:07.719Z,18.65
2022-07-31T21:05:34.302Z,18.64
2022-07-31T21:08:00.881Z,18.63
2022-07-31T21:10:29.680Z,18.63
2022-07-31T21:12:56.830Z,18.62
2022-07-31T21:15:41.729Z,18.61
2022-07-31T21:18:21.375Z,18.59
2022-07-31T21:20:50.861Z,18.56
2022-07-31T21:23:24.372Z,18.56
2022-07-31T21:25:52.314Z,18.56
2022-07-31T21:28:19.500Z,18.56
2022-07-31T21:30:46.208Z,18.56
2022-07-31T21:33:13.167Z,18.56
2022-07-31T21:35:40.631Z,18.57
2022-07-31T21:38:11.781Z,18.57
2022-07-31T21:40:40.287Z,18.58
2022-07-31T21:43:07.775Z,18.57
2022-07-31T21:45:50.417Z,18.56
2022-07-31T21:48:23.251Z,18.54
2022-07-31T21:50:49.989Z,18.51
2022-07-31T21:53:16.599Z,18.48
2022-07-31T21:55:44.013Z,18.45
2022-07-31T21:58:10.758Z,18.44
2022-07-31T22:00:37.469Z,18.43
2022-07-31T22:03:05.435Z,18.44
2022-07-31T22:05:51.552Z,18.42
2022-07-31T22:08:18.902Z,18.40
2022-07-31T22:10:46.141Z,18.42
2022-07-31T22:13:12.788Z,18.42
2022-07-31T22:15:54.240Z,18.43
2022-07-31T22:18:27.189Z,18.36
2022-07-31T22:20:54.396Z,18.33
2022-07-31T22:23:21.282Z,18.30
2022-07-31T22:25:50.907Z,18.28
2022-07-31T22:28:19.881Z,18.27
2022-07-31T22:30:47.281Z,18.25
2022-07-31T22:33:14.411Z,18.22
2022-07-31T22:35:41.160Z,18.18
2022-07-31T22:38:11.117Z,18.15
2022-07-31T22:40:37.853Z,18.14
2022-07-31T22:44:10.268Z,18.10
2022-07-31T22:45:53.525Z,18.04
2022-07-31T22:48:24.311Z,18.02
2022-07-31T22:50:50.948Z,17.98
2022-07-31T22:53:18.180Z,17.95
2022-07-31T22:55:44.843Z,17.93
2022-07-31T22:58:14.980Z,17.90
2022-07-31T23:00:42.533Z,17.88
2022-07-31T23:03:09.351Z,17.86
2022-07-31T23:06:13.151Z,17.84
2022-07-31T23:08:22.579Z,17.81
2022-07-31T23:10:49.314Z,17.80
2022-07-31T23:13:15.960Z,17.77
2022-07-31T23:15:43.753Z,17.76
2022-07-31T23:18:10.381Z,17.74
2022-07-31T23:20:36.940Z,17.72
2022-07-31T23:23:03.513Z,17.69
2022-07-31T23:25:30.091Z,17.68
2022-07-31T23:27:56.699Z,17.65
2022-07-31T23:30:24.300Z,17.64
2022-07-31T23:32:50.876Z,17.62
2022-07-31T23:35:17.753Z,17.60
2022-07-31T23:37:44.709Z,17.59
2022-07-31T23:40:11.891Z,17.58
2022-07-31T23:42:38.496Z,17.56
2022-07-31T23:45:12.238Z,17.54
2022-07-31T23:47:45.670Z,17.54
2022-07-31T23:50:14.037Z,17.52
2022-07-31T23:52:41.007Z,17.50
2022-07-31T23:55:08.338Z,17.48
2022-07-31T23:57:36.078Z,17.46
